Hinton, OK

3:34 AM CDT on May 23, 2015 (GMT -0500)
Weatherford | | Change Station
CLOSE
Current Station
Airport
Location: Weatherford,
Elevation: 1604 ft
Nearby Weather Stations
Active Advisory: Flood Warning, Flash Flood Watch Active Notice: Record Report

Elev 1604 ft 35.54 °N, 98.67 °W | Updated 19 minutes ago

Overcast
Overcast
54 °F
Feels Like 54 °F
N
8
Wind Variable Wind from ESE

Today
High -- | Low -- °F
--% Chance of Precip.
Yesterday
High -- | Low -- °F
Precip. -- in
6:23 AM 8:37 PM
Waxing Crescent, 28% visible
Pressure 30.10 in
Visibility 1.8 miles
Clouds Overcast 300 ft
Dew Point 54 °F
Humidity 100%
Rainfall 0.00 in
Snow Depth Not available.
UV 0 out of 12
Pollen .80 out of 12
Air Quality Not available.
Flu Activity Sporadic
METAR KOJA 230815Z AUTO 12007KT 1 3/4SM RA OVC003 12/12 A3010 RMK AO2

More Conditions Fewer Conditions

Pressure 30.10 in
Visibility 1.8 miles
Clouds Overcast 300 ft
Dew Point 54 °F
Humidity 100%
Rainfall 0.00 in
Snow Depth Not available.
UV 0 out of 12
Pollen .80 out of 12
Air Quality Not available.
Flu Activity Sporadic
METAR KOJA 230815Z AUTO 12007KT 1 3/4SM RA OVC003 12/12 A3010 RMK AO2

More Conditions Fewer Conditions

10-Day Weather Forecast

Almanac

Astronomy

May. 23, 2015 Rise Set
Actual Time
Civil Twilight
Nautical Twilight
Astronomical Twilight
Moon
Length of Visible Light
Length of Day
Tomorrow will be .
, % of the Moon is Illuminated

Today's Extremes

State Highs State Lows

Community

WunderPhotos

Upload Photos

1,823,401 photos uploaded!

WunderBlogs® & News

Nearby

Air Quality

  Air Quality AQ Index Pollutant
Not available.

Snow Depth

Station Depth Elevation

Earthquake Activity

City Distance Mag. Time & Date
Minimum magnitude displayed is 2.5.

Coastal Water Temperatures

Place Temperature

Stations

Nearby Weather Stations

Station Location Temp. Windchill Dew Point Humidity Wind Precip. Elev Updated Type
                   
Flood Warning
Statement as of 2:48 AM CDT on May 23, 2015

... Flood Warning extended until further notice...

the Flood Warning continues for
the Washita river at Anadarko

* until further notice... or until the warning is cancelled.

* At 2:30 am Saturday the stage was 21.4 feet.

* Moderate flooding is occurring and moderate flooding is forecast.

* Flood stage is 19.0 feet.



Lat... Lon 3505 9844 3512 9842 3513 9825 3513 9809
      3505 9809 3505 9826




Flash Flood Watch
Statement as of 5:24 PM CDT on May 22, 2015

... Flash Flood Watch remains in effect through Monday morning...

The Flash Flood Watch continues for

* all of western... central... and southern Oklahoma... and western
North Texas.

* Through Monday morning

* 2 to 5 inches of rainfall... with locally higher amounts will be
possible.

Precautionary/preparedness actions...

Monitor weather forecasts and information. Avoid travel in
flooded areas... and make plans to get to higher ground if
flooding develops or worsens in your area.



Austin